Time;durP1;ratioP1;P1;durP2;ratioP2;P2;SDS_P1;SDS_P2;PMS_P1;PMS_P2;Temp;Humidity;BMP_temperature;BMP_pressure;BME280_temperature;BME280_humidity;BME280_pressure;Samples;Min_cycle;Max_cycle;Signal;HPM_P1;HPM_P2
2023/03/07 00:00:17;;;;;;;8.30;3.00;;;6.20;99.90;;;;;;5022490;23;20150;-96
2023/03/07 00:02:52;;;;;;;;;;;;;;;;;;;;;
2023/03/07 00:05:13;;;;;;;6.47;3.40;;;6.10;99.90;;;;;;5048253;23;20154;-93
2023/03/07 00:07:32;;;;;;;12.57;3.57;;;6.00;99.90;;;;;;5025525;23;20197;-93
2023/03/07 00:09:38;;;;;;;12.93;3.43;;;6.10;99.90;;;;;;5024903;23;20150;-93
2023/03/07 00:11:50;;;;;;;12.93;3.27;;;6.30;99.90;;;;;;5024107;23;20669;-93
2023/03/07 00:13:57;;;;;;;7.50;3.47;;;6.30;99.90;;;;;;5023130;23;20151;-92
2023/03/07 00:16:14;;;;;;;10.00;4.07;;;6.40;99.90;;;;;;5026330;23;20202;-93
2023/03/07 00:18:25;;;;;;;11.57;4.63;;;6.40;99.90;;;;;;5024827;23;20155;-93
2023/03/07 00:20:29;;;;;;;18.70;6.10;;;6.50;99.90;;;;;;5024336;23;20147;-95
2023/03/07 00:22:30;;;;;;;12.60;6.13;;;6.50;99.90;;;;;;5024462;23;20166;-92
2023/03/07 00:27:16;;;;;;;;;;;;;;;;;;;;;
2023/03/07 00:29:18;;;;;;;22.80;6.73;;;6.80;99.90;;;;;;5048986;23;20154;-94
2023/03/07 00:31:24;;;;;;;19.07;6.60;;;7.10;99.90;;;;;;5048361;23;20170;-93
2023/03/07 00:33:28;;;;;;;21.63;6.63;;;7.10;99.90;;;;;;5024029;23;20482;-95
2023/03/07 00:35:46;;;;;;;18.80;6.57;;;6.90;99.90;;;;;;5024573;23;20161;-93
2023/03/07 00:37:52;;;;;;;17.60;7.97;;;6.70;99.90;;;;;;5026103;23;20218;-92
2023/03/07 00:39:53;;;;;;;19.77;7.20;;;6.70;99.90;;;;;;5047368;23;20157;-93
2023/03/07 00:41:54;;;;;;;17.43;8.00;;;6.80;99.90;;;;;;5047525;23;20253;-94
2023/03/07 00:43:55;;;;;;;16.63;7.90;;;6.90;99.90;;;;;;5023227;23;20218;-94
2023/03/07 00:46:01;;;;;;;19.00;7.97;;;6.80;99.90;;;;;;5023948;23;20208;-94
2023/03/07 00:48:10;;;;;;;14.87;8.17;;;6.70;99.90;;;;;;5048455;23;20194;-93
2023/03/07 00:50:22;;;;;;;18.37;8.37;;;6.50;99.90;;;;;;5023362;23;20282;-94
2023/03/07 00:52:23;;;;;;;14.77;8.67;;;6.50;99.90;;;;;;5024029;23;20159;-95
2023/03/07 00:54:27;;;;;;;17.37;8.40;;;6.50;99.90;;;;;;5023329;23;20217;-94
2023/03/07 00:56:37;;;;;;;22.60;9.10;;;6.50;99.90;;;;;;5022000;23;20159;-94
2023/03/07 00:59:09;;;;;;;18.83;9.20;;;6.60;99.90;;;;;;5024305;23;20246;-93
2023/03/07 01:04:04;;;;;;;30.37;9.10;;;6.40;99.90;;;;;;5046282;23;20454;-95
2023/03/07 01:06:09;;;;;;;25.37;10.10;;;6.60;99.90;;;;;;5023294;23;20158;-94
2023/03/07 01:08:20;;;;;;;;;;;;;;;;;;;;;
2023/03/07 01:10:26;;;;;;;22.40;9.40;;;6.60;99.90;;;;;;5047062;23;20237;-93
2023/03/07 01:12:33;;;;;;;26.40;9.53;;;6.70;99.90;;;;;;5023770;23;20155;-93
2023/03/07 01:14:36;;;;;;;17.67;9.00;;;6.80;99.90;;;;;;5024962;23;20150;-93
2023/03/07 01:16:42;;;;;;;16.47;8.83;;;6.80;99.90;;;;;;5023820;23;20159;-95
2023/03/07 01:18:49;;;;;;;16.03;8.80;;;6.80;99.90;;;;;;5025568;23;20159;-95
2023/03/07 01:21:01;;;;;;;16.80;9.23;;;6.70;99.90;;;;;;5023915;23;20210;-94
2023/03/07 01:23:32;;;;;;;18.93;8.67;;;6.70;99.90;;;;;;5024442;23;20159;-95
2023/03/07 01:25:48;;;;;;;19.50;8.90;;;6.60;99.90;;;;;;5024053;23;20155;-94
2023/03/07 01:28:03;;;;;;;18.03;8.60;;;6.60;99.90;;;;;;5022852;23;20218;-93
2023/03/07 01:30:09;;;;;;;19.90;9.47;;;6.70;99.90;;;;;;5025203;23;20158;-94
2023/03/07 01:32:15;;;;;;;28.87;9.03;;;6.80;99.90;;;;;;5023693;23;20162;-93
2023/03/07 01:34:16;;;;;;;20.43;9.93;;;6.70;99.90;;;;;;5024331;23;20165;-94
2023/03/07 01:36:29;;;;;;;16.73;8.70;;;6.80;99.90;;;;;;5048298;23;20241;-93
2023/03/07 01:38:33;;;;;;;18.07;8.23;;;6.60;99.90;;;;;;5024458;23;20159;-93
2023/03/07 01:40:40;;;;;;;20.27;9.07;;;6.60;99.90;;;;;;5047106;23;20170;-92
2023/03/07 01:42:43;;;;;;;18.07;9.23;;;6.40;99.90;;;;;;5024656;23;20668;-96
2023/03/07 01:45:08;;;;;;;18.43;9.63;;;6.20;99.90;;;;;;5023007;23;20151;-94
2023/03/07 01:47:30;;;;;;;19.20;8.77;;;6.30;99.90;;;;;;5025503;23;20232;-95
2023/03/07 01:49:45;;;;;;;20.93;8.53;;;6.40;99.90;;;;;;5025629;23;20186;-93
2023/03/07 01:51:51;;;;;;;14.67;8.73;;;6.30;99.90;;;;;;5024233;23;20257;-96
2023/03/07 01:53:56;;;;;;;21.50;8.87;;;6.20;99.90;;;;;;5024568;23;20194;-93
2023/03/07 01:59:19;;;;;;;18.03;9.37;;;6.10;99.90;;;;;;5033485;23;20590;-93
2023/03/07 02:01:24;;;;;;;20.37;10.00;;;6.10;99.90;;;;;;4970556;23;20509;-95
2023/03/07 02:03:42;;;;;;;24.23;10.20;;;6.10;99.90;;;;;;5021612;23;20159;-93
2023/03/07 02:06:08;;;;;;;19.67;9.57;;;6.20;99.90;;;;;;5023723;23;20183;-94
2023/03/07 02:08:16;;;;;;;16.70;9.47;;;6.10;99.90;;;;;;5022476;23;20194;-94
2023/03/07 02:10:22;;;;;;;17.43;9.57;;;6.10;99.90;;;;;;5023237;23;20150;-93
2023/03/07 02:12:32;;;;;;;21.37;9.73;;;6.10;99.90;;;;;;5023368;23;20158;-95
2023/03/07 02:14:47;;;;;;;22.70;10.73;;;6.30;99.90;;;;;;5022723;23;20155;-93
2023/03/07 02:16:51;;;;;;;17.47;9.57;;;6.30;99.90;;;;;;5022762;23;20155;-94
2023/03/07 02:18:52;;;;;;;24.13;10.43;;;6.20;99.90;;;;;;5022537;23;20163;-93
2023/03/07 02:20:59;;;;;;;19.70;10.50;;;6.10;99.90;;;;;;5023702;23;20181;-94
2023/03/07 02:23:12;;;;;;;21.07;10.00;;;6.30;99.90;;;;;;5022605;23;20208;-96
2023/03/07 02:25:34;;;;;;;19.03;10.43;;;6.30;99.90;;;;;;5023721;23;20475;-93
2023/03/07 02:27:38;;;;;;;19.70;10.50;;;6.30;99.90;;;;;;5022911;23;20195;-95
2023/03/07 02:29:41;;;;;;;25.03;11.10;;;6.30;99.90;;;;;;5024616;23;20481;-94
2023/03/07 02:31:50;;;;;;;19.53;11.17;;;6.20;99.90;;;;;;5046421;23;20178;-94
2023/03/07 02:33:53;;;;;;;21.80;11.20;;;6.40;99.90;;;;;;5023774;23;20150;-94
2023/03/07 02:36:26;;;;;;;21.80;10.20;;;6.20;99.90;;;;;;5021996;23;20175;-95
2023/03/07 02:38:56;;;;;;;23.20;11.10;;;6.10;99.90;;;;;;5027221;23;20240;-93
2023/03/07 02:41:17;;;;;;;19.90;10.67;;;6.30;99.90;;;;;;5022814;23;20174;-95
2023/03/07 02:43:33;;;;;;;19.30;9.77;;;6.40;99.90;;;;;;5022850;23;20167;-94
2023/03/07 02:45:34;;;;;;;19.77;10.23;;;6.40;99.90;;;;;;5023343;23;20150;-93
2023/03/07 02:48:05;;;;;;;26.80;10.60;;;6.20;99.90;;;;;;5046305;23;20707;-94
2023/03/07 02:50:16;;;;;;;24.57;10.87;;;6.40;99.90;;;;;;5022354;23;20158;-93
2023/03/07 02:52:28;;;;;;;17.40;10.03;;;6.50;99.90;;;;;;5024370;23;20147;-94
2023/03/07 02:54:57;;;;;;;17.80;9.90;;;6.40;99.90;;;;;;5027444;23;20189;-92
2023/03/07 02:57:03;;;;;;;21.00;10.30;;;6.40;99.90;;;;;;5023541;23;20155;-94
2023/03/07 02:59:14;;;;;;;20.13;10.50;;;6.40;99.90;;;;;;5025738;23;20163;-93
2023/03/07 03:01:40;;;;;;;16.83;10.10;;;6.40;99.90;;;;;;5021468;23;20166;-95
2023/03/07 03:03:54;;;;;;;23.63;10.20;;;6.40;99.90;;;;;;5023473;23;20196;-96
2023/03/07 03:06:10;;;;;;;22.93;11.43;;;6.40;99.90;;;;;;5024597;23;20151;-93
2023/03/07 03:08:16;;;;;;;21.30;10.37;;;6.50;99.90;;;;;;5024257;23;20193;-93
2023/03/07 03:10:50;;;;;;;24.43;10.80;;;6.50;99.90;;;;;;5022999;23;20578;-95
2023/03/07 03:13:07;;;;;;;19.73;10.43;;;6.50;99.90;;;;;;5003394;23;20162;-92
2023/03/07 03:15:17;;;;;;;19.23;10.63;;;6.40;99.90;;;;;;5046785;23;20226;-93
2023/03/07 03:17:19;;;;;;;20.50;10.70;;;6.50;99.90;;;;;;5027012;23;20162;-93
2023/03/07 03:19:32;;;;;;;27.03;11.17;;;6.40;99.90;;;;;;5026324;23;20210;-93
2023/03/07 03:21:50;;;;;;;22.83;10.50;;;6.40;99.90;;;;;;5024814;23;20166;-93
2023/03/07 03:23:57;;;;;;;19.93;10.37;;;6.40;99.90;;;;;;5029518;23;20169;-95
2023/03/07 03:26:25;;;;;;;23.80;10.87;;;6.40;99.90;;;;;;5025223;23;20161;-93
2023/03/07 03:28:55;;;;;;;21.63;10.87;;;6.40;99.90;;;;;;5028131;23;20195;-93
2023/03/07 03:31:27;;;;;;;16.57;10.40;;;6.30;99.90;;;;;;5052680;23;20285;-94
2023/03/07 03:33:36;;;;;;;20.77;10.30;;;6.20;99.90;;;;;;5025502;23;20165;-94
2023/03/07 03:35:51;;;;;;;;;;;;;;;;;;;;;
2023/03/07 03:38:38;;;;;;;21.20;9.97;;;6.30;99.90;;;;;;5052052;23;20198;-94
2023/03/07 03:40:44;;;;;;;24.40;10.83;;;6.20;99.90;;;;;;5046983;23;20177;-93
2023/03/07 03:43:11;;;;;;;19.47;10.53;;;6.20;99.90;;;;;;5050187;23;20177;-94
2023/03/07 03:45:45;;;;;;;;;;;;;;;;;;;;;
2023/03/07 03:47:57;;;;;;;15.97;9.10;;;6.20;99.90;;;;;;5048050;23;20193;-93
2023/03/07 03:50:16;;;;;;;16.17;9.80;;;6.30;99.90;;;;;;5024880;23;20150;-95
2023/03/07 03:53:08;;;;;;;18.10;9.90;;;6.60;99.90;;;;;;5051156;23;20164;-94
2023/03/07 03:56:11;;;;;;;16.83;9.83;;;6.50;99.90;;;;;;5049363;23;20154;-95
2023/03/07 03:58:37;;;;;;;19.03;10.77;;;6.60;99.90;;;;;;5025103;23;20154;-92
2023/03/07 04:01:00;;;;;;;21.23;10.10;;;6.60;99.90;;;;;;5020817;23;20233;-94
2023/03/07 04:03:21;;;;;;;18.73;9.87;;;6.40;99.90;;;;;;5025728;23;20261;-94
2023/03/07 04:05:58;;;;;;;21.83;10.83;;;6.20;99.90;;;;;;5023812;23;20155;-96
2023/03/07 04:08:22;;;;;;;19.30;10.00;;;6.20;99.90;;;;;;5049060;23;20237;-93
2023/03/07 04:13:27;;;;;;;24.47;10.67;;;6.10;99.90;;;;;;5008951;23;20153;-93
2023/03/07 04:15:37;;;;;;;20.40;10.07;;;6.10;99.90;;;;;;5023591;23;20170;-93
2023/03/07 04:17:43;;;;;;;22.27;10.83;;;6.20;99.90;;;;;;5055673;23;20174;-94
2023/03/07 04:20:03;;;;;;;22.40;11.03;;;6.20;99.90;;;;;;5032074;23;20151;-93
2023/03/07 04:22:11;;;;;;;17.40;10.07;;;6.30;99.90;;;;;;5050683;23;20245;-93
2023/03/07 04:24:20;;;;;;;19.07;10.47;;;6.40;99.90;;;;;;5026685;23;20163;-94
2023/03/07 04:26:38;;;;;;;18.23;9.53;;;6.40;99.90;;;;;;5025430;23;20151;-93
2023/03/07 04:31:31;;;;;;;18.60;10.67;;;6.40;99.90;;;;;;5029640;23;20185;-93
2023/03/07 04:33:41;;;;;;;17.77;10.23;;;6.20;99.90;;;;;;5025687;23;20610;-95
2023/03/07 04:35:48;;;;;;;20.20;10.10;;;6.00;99.90;;;;;;5025073;23;20198;-94
2023/03/07 04:37:59;;;;;;;17.87;9.93;;;6.10;99.90;;;;;;5049745;23;20162;-93
2023/03/07 04:40:02;;;;;;;25.33;10.73;;;6.10;99.90;;;;;;5029436;23;20217;-93
2023/03/07 04:42:31;;;;;;;20.20;10.67;;;6.10;99.90;;;;;;5027515;23;20174;-96
2023/03/07 04:44:38;;;;;;;17.57;10.20;;;6.00;99.90;;;;;;5024832;23;20181;-93
2023/03/07 04:46:55;;;;;;;15.40;9.80;;;6.10;99.90;;;;;;5029193;23;20175;-93
2023/03/07 04:49:20;;;;;;;19.90;10.47;;;6.30;99.90;;;;;;5050231;23;20235;-93
2023/03/07 04:51:22;;;;;;;17.13;9.90;;;6.30;99.90;;;;;;5026499;23;20505;-93
2023/03/07 04:53:37;;;;;;;18.03;10.57;;;6.30;99.90;;;;;;5028693;23;20159;-93
2023/03/07 04:55:38;;;;;;;16.47;10.17;;;6.30;99.90;;;;;;5023472;23;20194;-92
2023/03/07 04:57:51;;;;;;;17.83;10.87;;;6.30;99.90;;;;;;5024453;23;20213;-92
2023/03/07 05:00:05;;;;;;;;;;;;;;;;;;;;;
2023/03/07 05:02:37;;;;;;;20.77;10.23;;;6.10;99.90;;;;;;5049178;23;20178;-95
2023/03/07 05:04:56;;;;;;;20.53;10.30;;;6.30;99.90;;;;;;5025374;23;20157;-93
2023/03/07 05:07:16;;;;;;;16.80;10.60;;;6.20;99.90;;;;;;5027100;23;20158;-94
2023/03/07 05:09:36;;;;;;;23.20;11.10;;;6.40;99.90;;;;;;5024939;23;20186;-93
2023/03/07 05:11:47;;;;;;;17.70;10.13;;;6.40;99.90;;;;;;5025932;23;20179;-94
2023/03/07 05:13:51;;;;;;;23.77;10.23;;;6.30;99.90;;;;;;5024213;23;20674;-92
2023/03/07 05:16:10;;;;;;;16.70;9.67;;;6.40;99.90;;;;;;5026279;23;20162;-94
2023/03/07 05:18:39;;;;;;;19.93;10.17;;;6.50;99.90;;;;;;5049072;23;20200;-93
2023/03/07 05:20:49;;;;;;;17.03;9.67;;;6.30;99.90;;;;;;5022505;23;20179;-92
2023/03/07 05:22:53;;;;;;;21.97;10.80;;;6.20;99.90;;;;;;5050056;23;20150;-94
2023/03/07 05:24:57;;;;;;;19.37;9.63;;;6.00;99.90;;;;;;5023951;23;20166;-93
2023/03/07 05:26:58;;;;;;;18.23;10.23;;;6.00;99.90;;;;;;5024759;23;20155;-94
2023/03/07 05:28:59;;;;;;;17.00;10.50;;;6.00;99.90;;;;;;5049053;23;20648;-93
2023/03/07 05:31:05;;;;;;;17.00;10.20;;;6.00;99.90;;;;;;5026035;23;20219;-94
2023/03/07 05:33:07;;;;;;;18.47;10.50;;;6.00;99.90;;;;;;5023348;23;20155;-94
2023/03/07 05:35:18;;;;;;;20.97;10.53;;;5.90;99.90;;;;;;5024389;23;20151;-93
2023/03/07 05:37:24;;;;;;;22.93;10.43;;;6.00;99.90;;;;;;5026909;23;20158;-93
2023/03/07 05:39:32;;;;;;;21.97;11.57;;;6.00;99.90;;;;;;5024752;23;20654;-94
2023/03/07 05:41:49;;;;;;;23.40;11.47;;;5.90;99.90;;;;;;5049821;23;20202;-93
2023/03/07 05:44:06;;;;;;;21.57;11.33;;;6.00;99.90;;;;;;5026774;23;20550;-94
2023/03/07 05:46:28;;;;;;;21.40;9.47;;;5.90;99.90;;;;;;5024691;23;20229;-93
2023/03/07 05:48:30;;;;;;;21.87;11.90;;;5.70;99.90;;;;;;5050304;23;20196;-93
2023/03/07 05:50:33;;;;;;;20.07;12.00;;;5.70;99.90;;;;;;5023610;23;20266;-92
2023/03/07 05:52:40;;;;;;;20.77;12.20;;;5.70;99.90;;;;;;5043325;23;20162;-92
2023/03/07 05:54:43;;;;;;;20.00;10.73;;;5.80;99.90;;;;;;5022886;23;20151;-92
2023/03/07 05:56:55;;;;;;;25.03;12.30;;;5.70;99.90;;;;;;5049547;23;20150;-95
2023/03/07 05:59:11;;;;;;;20.37;11.57;;;5.80;99.90;;;;;;5024326;23;20154;-93
2023/03/07 06:01:14;;;;;;;25.90;11.30;;;5.70;99.90;;;;;;5048794;23;20508;-93
2023/03/07 06:03:18;;;;;;;20.93;11.27;;;5.80;99.90;;;;;;5047222;23;20150;-96
2023/03/07 06:05:28;;;;;;;25.07;11.77;;;5.90;99.90;;;;;;5028438;23;20468;-92
2023/03/07 06:07:29;;;;;;;26.90;12.30;;;5.90;99.90;;;;;;5055560;23;20649;-95
2023/03/07 06:09:30;;;;;;;22.47;11.63;;;5.90;99.90;;;;;;5030116;23;20159;-93
2023/03/07 06:11:32;;;;;;;21.20;10.63;;;6.00;99.90;;;;;;5032477;23;20174;-92
2023/03/07 06:13:33;;;;;;;21.80;11.43;;;6.10;99.90;;;;;;5032686;23;20575;-94
2023/03/07 06:15:36;;;;;;;17.67;10.87;;;6.20;99.90;;;;;;5058078;23;20139;-93
2023/03/07 06:17:40;;;;;;;18.53;11.00;;;6.10;99.90;;;;;;5032223;23;20191;-92
2023/03/07 06:19:43;;;;;;;20.60;11.13;;;6.10;99.90;;;;;;5036725;23;20240;-92
2023/03/07 06:21:45;;;;;;;19.10;11.17;;;6.20;99.90;;;;;;5064298;23;20214;-92
2023/03/07 06:23:46;;;;;;;23.63;12.07;;;6.30;99.90;;;;;;5041915;23;20139;-92
2023/03/07 06:25:54;;;;;;;20.27;11.30;;;6.20;99.90;;;;;;5043518;23;20147;-91
2023/03/07 06:27:59;;;;;;;25.30;11.03;;;6.30;99.90;;;;;;5058852;23;20185;-94
2023/03/07 06:30:00;;;;;;;18.27;11.27;;;6.30;99.90;;;;;;5028549;23;20759;-95
2023/03/07 06:32:04;;;;;;;20.87;10.77;;;6.30;99.90;;;;;;5030470;23;20179;-92
2023/03/07 06:34:07;;;;;;;24.10;11.53;;;6.40;99.90;;;;;;5060296;23;20172;-94
2023/03/07 06:36:12;;;;;;;19.13;11.00;;;6.50;99.90;;;;;;5031205;23;20158;-92
2023/03/07 06:38:17;;;;;;;22.33;11.17;;;6.40;99.90;;;;;;5041794;23;20163;-92
2023/03/07 06:40:19;;;;;;;20.93;10.90;;;6.40;99.90;;;;;;5042678;23;20191;-91
2023/03/07 06:42:20;;;;;;;20.07;11.10;;;6.50;99.90;;;;;;5066639;23;20222;-90
2023/03/07 06:44:21;;;;;;;22.07;12.20;;;6.20;99.90;;;;;;5043874;23;20138;-92
2023/03/07 06:46:22;;;;;;;19.77;11.03;;;6.20;99.90;;;;;;5044149;23;20155;-94
2023/03/07 06:48:24;;;;;;;18.67;11.27;;;6.40;99.90;;;;;;5039327;23;20178;-91
2023/03/07 06:50:25;;;;;;;20.97;11.47;;;6.30;99.90;;;;;;5018174;23;20160;-93
2023/03/07 06:52:26;;;;;;;20.83;11.10;;;6.30;99.90;;;;;;5043455;23;20139;-94
2023/03/07 06:54:30;;;;;;;24.13;10.57;;;6.40;99.90;;;;;;5043475;23;20210;-92
2023/03/07 06:56:33;;;;;;;18.03;10.87;;;6.40;99.90;;;;;;5042715;23;20154;-92
2023/03/07 06:58:34;;;;;;;24.20;10.60;;;6.40;99.90;;;;;;5042419;23;20139;-92
2023/03/07 07:00:35;;;;;;;26.63;10.57;;;6.40;99.90;;;;;;5058026;23;20178;-92
2023/03/07 07:02:37;;;;;;;23.53;10.93;;;6.40;99.90;;;;;;5028761;23;20153;-93
2023/03/07 07:04:38;;;;;;;19.53;10.40;;;6.60;99.90;;;;;;5031943;23;20159;-92
2023/03/07 07:06:39;;;;;;;21.37;11.80;;;6.60;99.90;;;;;;5009060;23;20163;-94
2023/03/07 07:08:40;;;;;;;21.70;10.37;;;6.70;99.90;;;;;;5031099;23;20195;-96
2023/03/07 07:10:43;;;;;;;20.73;10.70;;;6.60;99.90;;;;;;5057283;23;20181;-94
2023/03/07 07:12:44;;;;;;;18.10;10.67;;;6.60;99.90;;;;;;5028371;23;20186;-96
2023/03/07 07:14:47;;;;;;;18.30;10.27;;;6.60;99.90;;;;;;5062461;23;20247;-92
2023/03/07 07:16:48;;;;;;;17.43;10.63;;;6.60;99.90;;;;;;5039095;23;20171;-93
2023/03/07 11:22:02;;;;;;;10.63;7.30;;;7.20;99.90;;;;;;5058582;23;20212;-94
2023/03/07 11:25:28;;;;;;;;;;;;;;;;;;;;;
2023/03/07 12:04:00;;;;;;;4.13;2.70;;;6.70;99.90;;;;;;5086545;23;20215;-91
2023/03/07 12:06:21;;;;;;;4.33;2.70;;;6.80;99.90;;;;;;5055107;23;20154;-92
2023/03/07 12:08:59;;;;;;;4.63;2.53;;;7.00;99.90;;;;;;5056258;23;20190;-96
2023/03/07 12:11:39;;;;;;;2.93;2.30;;;7.00;99.90;;;;;;5040429;23;20206;-95
2023/03/07 12:14:06;;;;;;;3.63;2.60;;;6.70;99.90;;;;;;5026165;23;20154;-90
2023/03/07 12:16:44;;;;;;;3.90;2.27;;;6.90;99.90;;;;;;5028785;23;20155;-95
2023/03/07 12:18:59;;;;;;;5.40;2.57;;;6.60;99.90;;;;;;5051484;23;20184;-90
2023/03/07 12:21:14;;;;;;;2.83;2.27;;;6.50;99.90;;;;;;5027916;23;20514;-95
2023/03/07 12:23:19;;;;;;;1.83;1.30;;;6.40;99.90;;;;;;5026350;23;20242;-90
2023/03/07 12:25:23;;;;;;;2.97;2.40;;;6.80;99.90;;;;;;5047741;23;20206;-91
2023/03/07 12:27:37;;;;;;;3.97;2.67;;;6.70;99.90;;;;;;5024996;23;20157;-96
2023/03/07 12:29:46;;;;;;;5.40;2.80;;;6.90;99.90;;;;;;5023249;23;20159;-94
2023/03/07 12:31:51;;;;;;;3.13;2.40;;;7.30;99.90;;;;;;5049947;23;20711;-95
2023/03/07 12:34:06;;;;;;;2.40;1.53;;;7.20;99.90;;;;;;5024886;23;20237;-95
2023/03/07 12:36:38;;;;;;;2.77;1.43;;;7.30;99.90;;;;;;5023615;23;20155;-89
2023/03/07 12:38:45;;;;;;;0.93;0.73;;;7.00;99.90;;;;;;5020712;23;20156;-94
2023/03/07 12:41:22;;;;;;;1.27;0.93;;;6.60;99.90;;;;;;5023123;23;20570;-90
2023/03/07 12:43:31;;;;;;;1.80;1.30;;;6.60;99.90;;;;;;4964720;23;20159;-95
2023/03/07 12:45:47;;;;;;;1.83;1.40;;;6.70;99.90;;;;;;5046391;23;20206;-92
2023/03/07 12:47:55;;;;;;;2.10;1.40;;;6.70;99.90;;;;;;5022689;23;20282;-92
2023/03/07 12:50:08;;;;;;;2.23;1.37;;;6.50;99.90;;;;;;5022484;23;20490;-90
2023/03/07 12:52:23;;;;;;;2.10;1.50;;;6.60;99.90;;;;;;5023552;23;20198;-95
2023/03/07 12:54:36;;;;;;;1.60;1.17;;;6.40;99.90;;;;;;5023838;23;20242;-94
2023/03/07 12:57:15;;;;;;;2.50;1.30;;;6.60;99.90;;;;;;5048174;23;20186;-90
2023/03/07 12:59:20;;;;;;;1.33;0.87;;;6.30;99.90;;;;;;5032549;23;20158;-94
2023/03/07 13:01:39;;;;;;;1.10;1.00;;;6.30;99.90;;;;;;5023919;23;20178;-95
2023/03/07 13:03:55;;;;;;;1.80;1.47;;;6.50;99.90;;;;;;5023504;23;20201;-93
2023/03/07 13:05:56;;;;;;;1.13;1.00;;;6.40;99.90;;;;;;5022125;23;20153;-95
2023/03/07 13:07:58;;;;;;;1.50;0.70;;;6.00;99.90;;;;;;5021464;23;20254;-89
2023/03/07 13:10:03;;;;;;;1.40;1.20;;;6.10;99.90;;;;;;5023637;23;20162;-90
2023/03/07 13:12:17;;;;;;;1.90;1.50;;;6.30;99.90;;;;;;5046677;23;20633;-90
2023/03/07 13:14:40;;;;;;;2.03;1.37;;;6.50;99.90;;;;;;5024054;23;20210;-94
2023/03/07 13:16:44;;;;;;;2.03;1.40;;;6.60;99.90;;;;;;5023921;23;20581;-91
2023/03/07 13:18:44;;;;;;;2.37;1.50;;;6.40;99.90;;;;;;5047579;23;20162;-92
2023/03/07 13:21:10;;;;;;;3.53;1.77;;;6.50;99.90;;;;;;5022951;23;20175;-89
2023/03/07 13:23:24;;;;;;;1.63;1.23;;;6.60;99.90;;;;;;5024615;23;20183;-96
2023/03/07 13:25:24;;;;;;;1.63;1.40;;;6.50;99.90;;;;;;5023597;23;20162;-89
2023/03/07 13:27:40;;;;;;;1.73;1.30;;;6.20;99.90;;;;;;5046830;23;20158;-90
2023/03/07 13:30:03;;;;;;;2.90;1.50;;;6.20;99.90;;;;;;5022440;23;20245;-89
2023/03/07 13:32:04;;;;;;;1.80;1.30;;;6.10;99.90;;;;;;5022159;23;20263;-91
2023/03/07 13:34:46;;;;;;;2.17;1.60;;;6.30;99.90;;;;;;5022760;23;20662;-93
2023/03/07 13:36:47;;;;;;;2.00;1.50;;;6.70;99.90;;;;;;5022190;23;20241;-91
2023/03/07 13:38:48;;;;;;;1.97;1.43;;;6.90;99.90;;;;;;5046718;23;20612;-91
2023/03/07 13:40:52;;;;;;;1.70;1.37;;;6.90;99.90;;;;;;5022277;23;20561;-90
2023/03/07 13:42:54;;;;;;;2.03;1.40;;;7.00;99.90;;;;;;5022591;23;20183;-90
2023/03/07 13:44:55;;;;;;;2.20;1.73;;;7.10;99.90;;;;;;5046112;23;20182;-90
2023/03/07 13:47:01;;;;;;;2.70;1.70;;;7.10;99.90;;;;;;5022110;23;20234;-91
2023/03/07 13:49:02;;;;;;;2.10;1.83;;;7.40;99.90;;;;;;5022143;23;20202;-91
2023/03/07 13:51:07;;;;;;;2.60;1.67;;;7.60;99.90;;;;;;5022002;23;20171;-94
2023/03/07 13:53:14;;;;;;;3.37;2.50;;;7.60;99.90;;;;;;5021962;23;20155;-93
2023/03/07 13:55:21;;;;;;;3.03;2.00;;;7.70;99.90;;;;;;5045890;23;20150;-90
2023/03/07 13:57:35;;;;;;;3.13;2.23;;;8.00;99.90;;;;;;5022079;23;20263;-90
2023/03/07 13:59:36;;;;;;;4.07;2.40;;;7.90;99.90;;;;;;5021992;23;20233;-89
2023/03/07 14:01:55;;;;;;;3.17;2.33;;;8.00;99.90;;;;;;5045490;23;20186;-89
2023/03/07 14:03:58;;;;;;;3.40;2.40;;;7.80;99.90;;;;;;5021799;23;20167;-90
2023/03/07 14:06:03;;;;;;;4.27;2.37;;;8.00;99.90;;;;;;5021789;23;20155;-90
2023/03/07 14:08:07;;;;;;;3.63;2.23;;;7.70;99.90;;;;;;5022672;23;20197;-91
2023/03/07 14:10:14;;;;;;;4.17;2.33;;;7.80;99.90;;;;;;5029948;23;20166;-91
2023/03/07 14:12:37;;;;;;;3.47;2.57;;;7.60;99.90;;;;;;5039145;23;20187;-91
2023/03/07 14:15:21;;;;;;;3.90;2.50;;;7.40;99.90;;;;;;5041464;23;20139;-90
2023/03/07 14:17:52;;;;;;;5.73;2.50;;;7.50;99.90;;;;;;5000081;23;20158;-94
2023/03/07 14:20:12;;;;;;;4.53;2.57;;;7.70;99.90;;;;;;5021953;23;20158;-95
2023/03/07 14:22:44;;;;;;;2.80;1.90;;;7.90;99.90;;;;;;5021900;23;20548;-89
2023/03/07 14:25:06;;;;;;;2.37;1.60;;;7.40;99.90;;;;;;5022498;23;20613;-89
2023/03/07 14:27:12;;;;;;;2.43;1.70;;;7.30;99.90;;;;;;5021635;23;20158;-89
2023/03/07 14:29:28;;;;;;;3.33;1.70;;;7.20;99.90;;;;;;5021538;23;20594;-89
2023/03/07 14:31:37;;;;;;;2.77;1.70;;;7.00;99.90;;;;;;4998143;23;20179;-91
2023/03/07 14:33:39;;;;;;;1.50;1.10;;;6.60;99.90;;;;;;5045431;23;20150;-89
2023/03/07 14:35:43;;;;;;;1.97;1.50;;;6.70;99.90;;;;;;5021918;23;20499;-89
2023/03/07 14:37:44;;;;;;;1.83;1.40;;;6.70;99.90;;;;;;5045747;23;20529;-92
2023/03/07 14:40:04;;;;;;;2.43;1.53;;;6.90;99.90;;;;;;5046593;23;20201;-91
2023/03/07 14:42:32;;;;;;;2.17;1.30;;;6.90;99.90;;;;;;5045695;23;20204;-91
2023/03/07 14:45:13;;;;;;;3.83;1.50;;;6.80;99.90;;;;;;5022615;23;20253;-94
2023/03/07 14:47:35;;;;;;;1.90;1.40;;;6.70;99.90;;;;;;5021648;23;20503;-92
2023/03/07 14:50:03;;;;;;;2.67;1.87;;;6.60;99.90;;;;;;5045604;23;20162;-91
2023/03/07 14:52:04;;;;;;;3.87;2.23;;;6.40;99.90;;;;;;5021819;23;20216;-93
2023/03/07 14:54:13;;;;;;;2.23;1.80;;;6.50;99.90;;;;;;5045193;23;20574;-90
2023/03/07 14:56:26;;;;;;;3.00;2.10;;;6.60;99.90;;;;;;5021774;23;20166;-90
2023/03/07 14:58:31;;;;;;;2.23;1.80;;;6.60;99.90;;;;;;5021547;23;20273;-95
2023/03/07 15:00:33;;;;;;;2.93;1.90;;;6.20;99.90;;;;;;5045357;23;20225;-89
2023/03/07 15:02:34;;;;;;;2.10;1.60;;;6.00;99.90;;;;;;5021075;23;20158;-89
2023/03/07 15:04:35;;;;;;;3.70;1.80;;;6.00;99.90;;;;;;5021428;23;20155;-93
2023/03/07 15:06:43;;;;;;;2.53;1.53;;;6.10;99.90;;;;;;5021493;23;20155;-90
2023/03/07 15:08:45;;;;;;;2.93;1.80;;;5.90;99.90;;;;;;5045021;23;20200;-89
2023/03/07 15:10:49;;;;;;;1.90;1.57;;;6.20;99.90;;;;;;5045190;23;20166;-90
2023/03/07 15:12:53;;;;;;;2.37;1.47;;;5.90;99.90;;;;;;5021422;23;20162;-90
2023/03/07 15:14:57;;;;;;;2.00;1.30;;;5.80;99.90;;;;;;5021541;23;20160;-91
2023/03/07 15:17:04;;;;;;;1.60;1.20;;;5.60;99.90;;;;;;5045244;23;20151;-91
2023/03/07 15:19:24;;;;;;;6.53;1.03;;;5.60;99.90;;;;;;5021785;23;20158;-91
2023/03/07 15:21:29;;;;;;;1.57;0.80;;;5.40;99.90;;;;;;5021341;23;20314;-91
2023/03/07 15:23:30;;;;;;;1.00;0.73;;;5.20;99.90;;;;;;5021447;23;20222;-89
2023/03/07 15:25:32;;;;;;;1.00;0.70;;;5.40;99.90;;;;;;5021369;23;20491;-90
2023/03/07 15:27:33;;;;;;;1.37;0.70;;;5.30;99.90;;;;;;5020797;23;20187;-92
2023/03/07 15:29:33;;;;;;;1.30;0.87;;;5.20;99.90;;;;;;5045159;23;20172;-91
2023/03/07 15:31:56;;;;;;;5.10;3.60;;;5.00;99.90;;;;;;5021005;23;20171;-90
2023/03/07 15:34:10;;;;;;;3.27;2.07;;;5.20;99.90;;;;;;5020839;23;20155;-90
2023/03/07 15:36:11;;;;;;;2.37;1.50;;;5.20;99.90;;;;;;5021204;23;20162;-94
2023/03/07 15:38:21;;;;;;;2.30;1.10;;;5.40;99.90;;;;;;5021528;23;20159;-92
2023/03/07 15:40:35;;;;;;;2.03;1.00;;;5.60;99.90;;;;;;5045830;23;20150;-91
2023/03/07 15:42:55;;;;;;;1.30;1.13;;;5.40;99.90;;;;;;5021834;23;20166;-90
2023/03/07 15:45:00;;;;;;;4.00;1.10;;;5.50;99.90;;;;;;5021751;23;20222;-96
2023/03/07 15:47:13;;;;;;;1.13;1.00;;;5.50;99.90;;;;;;5045143;23;20229;-91
2023/03/07 15:49:40;;;;;;;1.80;1.30;;;5.50;99.90;;;;;;5021424;23;20173;-95
2023/03/07 15:51:42;;;;;;;2.00;1.50;;;5.70;99.90;;;;;;5021135;23;20178;-90
2023/03/07 15:53:45;;;;;;;2.00;1.27;;;5.80;99.90;;;;;;5046442;23;20530;-89
2023/03/07 15:55:55;;;;;;;2.80;1.60;;;5.70;99.90;;;;;;5026202;23;20159;-90
2023/03/07 16:00:04;;;;;;;2.33;1.40;;;5.20;99.90;;;;;;4998343;23;20222;-90
2023/03/07 16:02:24;;;;;;;2.50;1.67;;;5.20;99.90;;;;;;5022236;23;20205;-90
2023/03/07 16:04:34;;;;;;;2.60;1.70;;;5.20;99.90;;;;;;5045948;23;20604;-90
2023/03/07 16:06:41;;;;;;;5.50;1.80;;;5.10;99.90;;;;;;5022600;23;20166;-92
2023/03/07 16:08:46;;;;;;;3.33;1.80;;;5.10;99.90;;;;;;5022196;23;20205;-95
2023/03/07 16:11:07;;;;;;;2.43;1.77;;;5.20;99.90;;;;;;5045651;23;20201;-93
2023/03/07 16:13:11;;;;;;;4.63;2.30;;;5.40;99.90;;;;;;5021706;23;20198;-90
2023/03/07 16:15:28;;;;;;;3.67;2.07;;;5.30;99.90;;;;;;5022706;23;20155;-95
2023/03/07 16:17:38;;;;;;;2.77;1.77;;;5.20;99.90;;;;;;5030209;23;20159;-92
2023/03/07 16:19:42;;;;;;;3.87;2.17;;;4.90;99.90;;;;;;5023947;23;20177;-91
2023/03/07 16:21:42;;;;;;;5.17;2.10;;;4.80;99.90;;;;;;5022075;23;20179;-91
2023/03/07 16:23:44;;;;;;;5.27;2.87;;;4.60;99.90;;;;;;5021402;23;20261;-91
2023/03/07 16:25:45;;;;;;;4.27;2.40;;;4.50;99.90;;;;;;5046172;23;20254;-91
2023/03/07 16:27:51;;;;;;;5.80;3.33;;;4.50;99.90;;;;;;5021706;23;20183;-90